createdAt,value
2018-11-11T00:01:17.497Z,48
2018-11-11T00:06:19.971Z,48
2018-11-11T00:11:22.433Z,45
2018-11-11T00:16:24.888Z,49
2018-11-11T00:21:27.309Z,45
2018-11-11T00:26:29.712Z,43
2018-11-11T00:31:32.210Z,46
2018-11-11T00:36:34.612Z,46
2018-11-11T00:41:37.048Z,50
2018-11-11T00:46:39.521Z,48
2018-11-11T00:51:41.947Z,46
2018-11-11T00:56:44.408Z,52
2018-11-11T01:01:46.848Z,49
2018-11-11T01:06:49.349Z,50
2018-11-11T01:11:51.707Z,46
2018-11-11T01:16:54.198Z,46
2018-11-11T01:21:56.622Z,46
2018-11-11T01:26:59.064Z,48
2018-11-11T01:32:01.499Z,47
2018-11-11T01:37:03.958Z,53
2018-11-11T01:42:06.397Z,46
2018-11-11T01:47:08.838Z,54
2018-11-11T01:52:11.276Z,51
2018-11-11T01:57:13.713Z,48
2018-11-11T02:02:16.257Z,53
2018-11-11T02:07:18.644Z,56
2018-11-11T02:12:21.050Z,59
2018-11-11T02:17:23.507Z,58
2018-11-11T02:22:25.953Z,61
2018-11-11T02:27:28.436Z,59
2018-11-11T02:32:30.892Z,59
2018-11-11T02:37:33.379Z,59
2018-11-11T02:42:35.749Z,61
2018-11-11T02:47:38.181Z,56
2018-11-11T02:52:40.633Z,58
2018-11-11T02:57:43.084Z,63
2018-11-11T03:02:45.520Z,60
2018-11-11T03:07:47.969Z,59
2018-11-11T03:12:50.422Z,56
2018-11-11T03:17:52.868Z,53
2018-11-11T03:22:55.300Z,53
2018-11-11T03:27:57.791Z,51
2018-11-11T03:33:00.202Z,54
2018-11-11T03:38:02.675Z,55
2018-11-11T03:43:05.118Z,53
2018-11-11T03:48:07.551Z,51
2018-11-11T03:53:10.010Z,48
2018-11-11T03:58:12.444Z,46
2018-11-11T04:03:14.926Z,46
2018-11-11T04:08:17.352Z,51
2018-11-11T04:13:19.791Z,48
2018-11-11T04:18:22.233Z,43
2018-11-11T04:23:24.667Z,45
2018-11-11T04:28:27.152Z,45
2018-11-11T04:33:29.646Z,45
2018-11-11T04:38:31.999Z,41
2018-11-11T04:43:34.428Z,38
2018-11-11T04:48:36.887Z,37
2018-11-11T04:53:39.394Z,41
2018-11-11T04:58:41.751Z,41
2018-11-11T05:08:46.650Z,36
2018-11-11T05:13:49.110Z,37
2018-11-11T05:18:51.533Z,36
2018-11-11T05:23:54.000Z,36
2018-11-11T05:28:56.427Z,36
2018-11-11T05:33:58.881Z,37
2018-11-11T05:39:01.316Z,37
2018-11-11T05:44:03.753Z,35
2018-11-11T05:49:06.197Z,33
2018-11-11T05:54:08.676Z,36
2018-11-11T05:59:11.078Z,35
2018-11-11T06:04:13.505Z,32
2018-11-11T06:09:15.963Z,31
2018-11-11T06:14:18.422Z,36
2018-11-11T06:19:20.860Z,30
2018-11-11T06:24:23.297Z,32
2018-11-11T06:29:25.751Z,30
2018-11-11T06:34:28.187Z,33
2018-11-11T06:39:30.633Z,30
2018-11-11T06:44:33.054Z,28
2018-11-11T06:49:35.491Z,26
2018-11-11T06:54:37.922Z,24
2018-11-11T06:59:40.357Z,23
2018-11-11T07:04:42.811Z,23
2018-11-11T07:09:45.256Z,24
2018-11-11T07:14:47.688Z,23
2018-11-11T07:19:50.145Z,24
2018-11-11T07:24:52.573Z,24
2018-11-11T07:29:55.022Z,27
2018-11-11T07:34:57.454Z,23
2018-11-11T07:39:59.904Z,27
2018-11-11T07:45:02.367Z,25
2018-11-11T07:50:04.777Z,26
2018-11-11T07:55:07.359Z,23
2018-11-11T08:00:09.661Z,24
2018-11-11T08:05:12.123Z,25
2018-11-11T08:10:14.544Z,24
2018-11-11T08:15:16.979Z,23
2018-11-11T08:20:19.421Z,23
2018-11-11T08:25:21.923Z,22
2018-11-11T08:30:24.297Z,22
2018-11-11T08:35:26.747Z,23
2018-11-11T08:40:29.201Z,21
2018-11-11T08:45:31.765Z,21
2018-11-11T08:50:34.070Z,17
2018-11-11T08:55:36.512Z,17
2018-11-11T09:00:38.946Z,18
2018-11-11T09:05:41.400Z,18
2018-11-11T09:10:43.841Z,16
2018-11-11T09:15:46.265Z,18
2018-11-11T09:20:48.725Z,15
2018-11-11T09:25:51.147Z,17
2018-11-11T09:30:53.585Z,15
2018-11-11T09:35:56.032Z,13
2018-11-11T09:40:58.516Z,13
2018-11-11T09:46:00.932Z,15
2018-11-11T09:51:03.438Z,11
2018-11-11T09:56:05.823Z,14
2018-11-11T10:01:08.370Z,13
2018-11-11T10:06:10.703Z,13
2018-11-11T10:11:13.159Z,13
2018-11-11T10:16:15.589Z,12
2018-11-11T10:21:18.106Z,13
2018-11-11T10:26:20.474Z,12
2018-11-11T10:31:22.916Z,11
2018-11-11T10:36:25.347Z,11
2018-11-11T10:41:27.804Z,12
2018-11-11T10:46:30.235Z,11
2018-11-11T10:56:35.170Z,10
2018-11-11T11:01:37.571Z,9
2018-11-11T11:06:40.018Z,11
2018-11-11T11:11:42.428Z,8
2018-11-11T11:16:44.866Z,7
2018-11-11T11:21:47.304Z,6
2018-11-11T11:26:49.743Z,5
2018-11-11T11:31:52.242Z,4
2018-11-11T11:36:54.629Z,5
2018-11-11T11:41:57.100Z,7
2018-11-11T11:46:59.563Z,3
2018-11-11T11:52:02.109Z,4
2018-11-11T11:57:04.401Z,8
2018-11-11T12:02:06.927Z,4
2018-11-11T12:07:09.297Z,7
2018-11-11T12:12:11.710Z,5
2018-11-11T12:17:14.205Z,4
2018-11-11T12:22:16.663Z,5
2018-11-11T12:27:19.031Z,5
2018-11-11T12:32:21.479Z,4
2018-11-11T12:37:23.914Z,2
2018-11-11T12:42:26.356Z,2
2018-11-11T12:47:28.803Z,3
2018-11-11T12:52:31.235Z,5
2018-11-11T12:57:33.697Z,4
2018-11-11T13:02:36.124Z,4
2018-11-11T13:07:38.566Z,4
2018-11-11T13:12:41.022Z,3
2018-11-11T13:17:43.462Z,3
2018-11-11T13:22:46.097Z,3
2018-11-11T13:27:48.348Z,4
2018-11-11T13:32:50.788Z,3
2018-11-11T13:37:53.249Z,4
2018-11-11T13:42:55.659Z,3
2018-11-11T13:47:58.123Z,4
2018-11-11T13:53:00.545Z,3
2018-11-11T13:58:03.013Z,4
2018-11-11T14:03:05.449Z,4
2018-11-11T14:08:07.869Z,4
2018-11-11T14:13:10.404Z,3
2018-11-11T14:18:12.897Z,6
2018-11-11T14:23:15.171Z,8
2018-11-11T14:28:17.620Z,4
2018-11-11T14:33:20.063Z,6
2018-11-11T14:38:22.573Z,6
2018-11-11T14:43:24.948Z,9
2018-11-11T14:48:27.381Z,5
2018-11-11T14:53:29.969Z,5
2018-11-11T14:58:32.426Z,4
2018-11-11T15:03:34.716Z,4
2018-11-11T15:08:37.161Z,5
2018-11-11T15:13:39.603Z,4
2018-11-11T15:18:42.028Z,3
2018-11-11T15:23:44.479Z,3
2018-11-11T15:28:46.907Z,3
2018-11-11T15:33:49.352Z,3
2018-11-11T15:38:51.865Z,5
2018-11-11T15:43:54.287Z,3
2018-11-11T15:48:56.680Z,2
2018-11-11T15:53:59.170Z,3
2018-11-11T15:59:01.676Z,3
2018-11-11T16:04:03.995Z,3
2018-11-11T16:09:06.465Z,3
2018-11-11T16:14:08.952Z,3
2018-11-11T16:19:11.321Z,3
2018-11-11T16:24:13.749Z,6
2018-11-11T16:29:16.198Z,3
2018-11-11T16:34:18.659Z,3
2018-11-11T16:39:21.168Z,3
2018-11-11T16:44:23.689Z,4
2018-11-11T16:49:25.949Z,5
2018-11-11T16:54:28.423Z,3
2018-11-11T16:59:30.838Z,3
2018-11-11T17:04:33.277Z,3
2018-11-11T17:09:35.714Z,3
2018-11-11T17:14:38.173Z,4
2018-11-11T17:19:40.600Z,3
2018-11-11T17:24:43.056Z,3
2018-11-11T17:29:45.554Z,3
2018-11-11T17:34:47.935Z,5
2018-11-11T17:39:50.353Z,3
2018-11-11T17:44:52.813Z,5
2018-11-11T17:49:55.237Z,5
2018-11-11T17:54:57.705Z,4
2018-11-11T18:00:00.126Z,5
2018-11-11T18:05:02.979Z,5
2018-11-11T18:10:05.024Z,8
2018-11-11T18:15:07.549Z,9
2018-11-11T18:20:09.924Z,13
2018-11-11T18:25:12.396Z,12
2018-11-11T18:30:14.785Z,14
2018-11-11T18:35:17.236Z,14
2018-11-11T18:40:19.659Z,18
2018-11-11T18:45:22.176Z,21
2018-11-11T18:50:24.520Z,20
2018-11-11T18:55:27.011Z,22
2018-11-11T19:00:29.417Z,24
2018-11-11T19:05:31.846Z,21
2018-11-11T19:10:34.457Z,20
2018-11-11T19:15:36.727Z,19
2018-11-11T19:20:39.212Z,21
2018-11-11T19:25:41.617Z,20
2018-11-11T19:30:44.148Z,19
2018-11-11T19:35:46.500Z,20
2018-11-11T19:40:48.965Z,20
2018-11-11T19:45:51.472Z,22
2018-11-11T19:50:53.823Z,20
2018-11-11T19:55:56.251Z,24
2018-11-11T20:00:58.729Z,27
2018-11-11T20:06:01.303Z,25
2018-11-11T20:11:03.595Z,26
2018-11-11T20:16:06.097Z,20
2018-11-11T20:21:08.569Z,21
2018-11-11T20:26:10.917Z,19
2018-11-11T20:31:13.388Z,17
2018-11-11T20:36:15.802Z,17
2018-11-11T20:41:18.316Z,14
2018-11-11T20:46:20.702Z,11
2018-11-11T20:51:23.117Z,11
2018-11-11T20:56:25.575Z,12
2018-11-11T21:01:28.002Z,10
2018-11-11T21:06:30.424Z,9
2018-11-11T21:11:32.939Z,10
2018-11-11T21:16:35.325Z,9
2018-11-11T21:21:37.752Z,11
2018-11-11T21:26:40.198Z,10
2018-11-11T21:31:42.626Z,13
2018-11-11T21:36:45.075Z,12
2018-11-11T21:41:47.521Z,11
2018-11-11T21:46:49.951Z,11
2018-11-11T21:51:52.423Z,10
2018-11-11T21:56:54.821Z,12
2018-11-11T22:01:57.312Z,9
2018-11-11T22:06:59.861Z,12
2018-11-11T22:12:02.159Z,9
2018-11-11T22:17:04.643Z,12
2018-11-11T22:22:07.078Z,13
2018-11-11T22:27:09.468Z,14
2018-11-11T22:32:11.917Z,15
2018-11-11T22:37:14.347Z,14
2018-11-11T22:42:16.885Z,13
2018-11-11T22:47:19.255Z,14
2018-11-11T22:52:21.684Z,14
2018-11-11T22:57:24.127Z,14
2018-11-11T23:02:26.564Z,14
2018-11-11T23:07:29.000Z,13
2018-11-11T23:12:31.516Z,14
2018-11-11T23:17:33.893Z,14
2018-11-11T23:22:36.315Z,13
2018-11-11T23:27:38.754Z,11
2018-11-11T23:32:41.227Z,9
2018-11-11T23:37:43.647Z,10
2018-11-11T23:42:46.088Z,6
2018-11-11T23:47:49.706Z,7
2018-11-11T23:52:50.965Z,7
2018-11-11T23:57:53.665Z,5
